createdAt,value
2022-12-01T00:02:18.786Z,31.52
2022-12-01T00:04:50.819Z,31.80
2022-12-01T00:07:20.556Z,32.22
2022-12-01T00:10:05.447Z,32.13
2022-12-01T00:12:35.226Z,34.85
2022-12-01T00:15:04.969Z,31.15
2022-12-01T00:17:34.662Z,31.85
2022-12-01T00:20:04.475Z,30.60
2022-12-01T00:22:34.180Z,31.05
2022-12-01T00:25:08.665Z,30.95
2022-12-01T00:27:38.422Z,32.60
2022-12-01T00:30:10.781Z,31.70
2022-12-01T00:32:40.914Z,32.15
2022-12-01T00:35:11.470Z,32.22
2022-12-01T00:37:41.227Z,32.35
2022-12-01T00:40:14.690Z,34.30
2022-12-01T00:42:44.383Z,32.33
2022-12-01T00:45:14.276Z,34.03
2022-12-01T00:47:44.011Z,32.75
2022-12-01T00:50:14.530Z,30.85
2022-12-01T00:52:44.235Z,31.00
2022-12-01T00:55:16.585Z,31.30
2022-12-01T00:57:47.863Z,31.08
2022-12-01T01:00:19.489Z,30.35
2022-12-01T01:02:49.277Z,32.30
2022-12-01T01:05:19.306Z,30.67
2022-12-01T01:07:49.053Z,31.17
2022-12-01T01:10:22.750Z,30.38
2022-12-01T01:12:55.102Z,30.55
2022-12-01T01:15:24.818Z,30.95
2022-12-01T01:17:54.567Z,29.35
2022-12-01T01:20:24.397Z,29.92
2022-12-01T01:22:54.142Z,30.52
2022-12-01T01:25:26.689Z,30.25
2022-12-01T01:27:56.612Z,31.00
2022-12-01T01:30:26.350Z,31.45
2022-12-01T01:32:56.110Z,29.02
2022-12-01T01:35:25.844Z,29.13
2022-12-01T01:37:55.601Z,28.33
2022-12-01T01:40:27.900Z,28.15
2022-12-01T01:42:57.631Z,29.23
2022-12-01T01:45:30.321Z,30.52
2022-12-01T01:48:03.794Z,31.45
2022-12-01T01:50:33.879Z,29.25
2022-12-01T01:53:07.434Z,30.40
2022-12-01T01:55:40.534Z,30.60
2022-12-01T01:58:14.131Z,29.80
2022-12-01T02:00:46.715Z,30.20
2022-12-01T02:03:19.783Z,30.52
2022-12-01T02:05:49.560Z,30.98
2022-12-01T02:08:19.440Z,32.17
2022-12-01T02:11:12.285Z,32.10
2022-12-01T02:13:53.077Z,33.60
2022-12-01T02:16:33.616Z,30.42
2022-12-01T02:19:14.546Z,32.47
2022-12-01T02:22:01.304Z,32.72
2022-12-01T02:25:07.033Z,31.83
2022-12-01T02:27:59.063Z,29.45
2022-12-01T02:30:41.890Z,29.85
2022-12-01T02:33:20.375Z,30.42
2022-12-01T02:35:58.621Z,30.48
2022-12-01T02:38:33.804Z,30.65
2022-12-01T02:41:11.538Z,31.90
2022-12-01T02:43:46.716Z,31.83
2022-12-01T02:46:25.819Z,30.95
2022-12-01T02:49:02.310Z,28.85
2022-12-01T02:51:34.719Z,31.20
2022-12-01T02:54:06.334Z,29.00
2022-12-01T02:56:36.057Z,33.78
2022-12-01T02:59:12.122Z,29.13
2022-12-01T03:02:07.013Z,29.38
2022-12-01T03:04:54.554Z,30.05
2022-12-01T03:07:40.581Z,28.02
2022-12-01T03:10:19.132Z,30.52
2022-12-01T03:12:59.234Z,31.15
2022-12-01T03:15:38.475Z,31.60
2022-12-01T03:18:21.276Z,30.55
2022-12-01T03:20:59.317Z,29.00
2022-12-01T03:23:33.028Z,29.98
2022-12-01T03:26:07.129Z,29.95
2022-12-01T03:28:41.843Z,30.88
2022-12-01T03:31:15.750Z,34.95
2022-12-01T03:33:53.264Z,32.22
2022-12-01T03:36:27.854Z,33.00
2022-12-01T03:39:03.222Z,34.00
2022-12-01T03:41:39.373Z,33.05
2022-12-01T03:44:14.064Z,35.75
2022-12-01T03:46:51.380Z,34.80
2022-12-01T03:49:26.969Z,32.80
2022-12-01T03:52:23.576Z,33.03
2022-12-01T03:57:32.721Z,32.78
2022-12-01T04:00:03.082Z,31.83
2022-12-01T04:02:42.576Z,34.08
2022-12-01T04:05:15.785Z,34.38
2022-12-01T04:07:45.601Z,32.35
2022-12-01T04:10:15.669Z,32.95
2022-12-01T04:12:42.850Z,31.83
2022-12-01T04:15:14.940Z,33.30
2022-12-01T04:17:46.067Z,34.22
2022-12-01T04:20:18.947Z,33.22
2022-12-01T04:22:48.707Z,34.05
2022-12-01T04:25:19.948Z,34.00
2022-12-01T04:27:49.698Z,33.05
2022-12-01T04:30:19.998Z,32.85
2022-12-01T04:32:49.772Z,33.80
2022-12-01T04:35:22.091Z,35.08
2022-12-01T04:37:51.889Z,32.58
2022-12-01T04:40:21.780Z,31.80
2022-12-01T04:42:51.440Z,33.50
2022-12-01T04:45:21.154Z,35.17
2022-12-01T04:47:50.901Z,37.13
2022-12-01T04:50:23.208Z,33.08
2022-12-01T04:52:54.185Z,33.70
2022-12-01T04:55:25.752Z,35.08
2022-12-01T04:57:55.515Z,35.13
2022-12-01T05:00:25.208Z,34.17
2022-12-01T05:02:54.943Z,37.20
2022-12-01T05:05:27.263Z,36.92
2022-12-01T05:07:57.004Z,31.30
2022-12-01T05:10:26.806Z,35.05
2022-12-01T05:12:58.196Z,32.70
2022-12-01T05:15:28.085Z,34.45
2022-12-01T05:17:57.815Z,31.40
2022-12-01T05:20:42.733Z,35.30
2022-12-01T05:23:16.742Z,31.67
2022-12-01T05:25:46.919Z,32.90
2022-12-01T05:28:16.637Z,35.58
2022-12-01T05:30:46.391Z,34.00
2022-12-01T05:33:16.145Z,37.15
2022-12-01T05:35:48.566Z,33.05
2022-12-01T05:38:18.590Z,30.80
2022-12-01T05:40:53.032Z,33.70
2022-12-01T05:43:28.701Z,33.60
2022-12-01T05:46:00.251Z,32.95
2022-12-01T05:48:30.040Z,32.45
2022-12-01T05:51:02.335Z,33.78
2022-12-01T05:53:32.068Z,32.47
2022-12-01T05:56:01.741Z,30.85
2022-12-01T05:58:32.733Z,31.63
2022-12-01T06:01:05.436Z,32.13
2022-12-01T06:03:35.143Z,31.48
2022-12-01T06:06:07.643Z,30.60
2022-12-01T06:08:37.454Z,33.35
2022-12-01T06:11:07.303Z,30.15
2022-12-01T06:13:37.061Z,34.65
2022-12-01T06:16:08.885Z,34.22
2022-12-01T06:18:40.907Z,33.55
2022-12-01T06:21:13.218Z,32.22
2022-12-01T06:23:42.926Z,35.70
2022-12-01T06:26:12.654Z,31.80
2022-12-01T06:28:42.626Z,33.42
2022-12-01T06:31:12.606Z,32.92
2022-12-01T06:33:42.315Z,34.38
2022-12-01T06:36:14.910Z,34.80
2022-12-01T06:38:44.682Z,36.33
2022-12-01T06:41:14.426Z,31.20
2022-12-01T06:43:44.231Z,31.05
2022-12-01T06:46:14.040Z,31.95
2022-12-01T06:48:43.784Z,30.20
2022-12-01T06:51:16.053Z,31.58
2022-12-01T06:53:45.724Z,33.13
2022-12-01T06:56:16.362Z,31.25
2022-12-01T06:58:46.395Z,31.73
2022-12-01T07:01:16.541Z,31.40
2022-12-01T07:03:49.752Z,30.90
2022-12-01T07:06:22.154Z,31.92
2022-12-01T07:08:51.935Z,29.83
2022-12-01T07:11:21.750Z,32.25
2022-12-01T07:13:51.986Z,32.83
2022-12-01T07:16:22.288Z,33.90
2022-12-01T07:18:53.143Z,34.15
2022-12-01T07:21:25.397Z,33.88
2022-12-01T07:23:55.071Z,32.97
2022-12-01T07:26:24.799Z,31.77
2022-12-01T07:28:55.896Z,33.22
2022-12-01T07:31:25.699Z,31.30
2022-12-01T07:33:58.605Z,31.00
2022-12-01T07:36:31.001Z,30.20
2022-12-01T07:39:02.286Z,28.92
2022-12-01T07:41:31.966Z,28.83
2022-12-01T07:44:01.680Z,29.73
2022-12-01T07:46:31.583Z,32.92
2022-12-01T07:49:01.705Z,33.30
2022-12-01T07:51:34.066Z,33.03
2022-12-01T07:54:06.422Z,30.13
2022-12-01T07:56:37.619Z,29.83
2022-12-01T07:59:07.553Z,31.65
2022-12-01T08:01:41.519Z,27.67
2022-12-01T08:04:14.190Z,30.88
2022-12-01T08:06:46.520Z,32.13
2022-12-01T08:09:16.248Z,30.05
2022-12-01T08:11:46.006Z,28.88
2022-12-01T08:14:16.170Z,29.85
2022-12-01T08:16:46.175Z,35.13
2022-12-01T08:19:15.965Z,34.10
2022-12-01T08:21:48.289Z,31.67
2022-12-01T08:24:18.093Z,31.67
2022-12-01T08:26:47.896Z,31.95
2022-12-01T08:29:20.390Z,34.70
2022-12-01T08:31:50.686Z,33.05
2022-12-01T08:34:20.680Z,28.70
2022-12-01T08:36:54.276Z,29.23
2022-12-01T08:39:24.083Z,31.77
2022-12-01T08:41:53.804Z,35.28
2022-12-01T08:44:23.633Z,29.38
2022-12-01T08:46:54.534Z,32.20
2022-12-01T08:49:24.741Z,29.88
2022-12-01T08:51:57.014Z,32.83
2022-12-01T08:54:26.695Z,31.45
2022-12-01T08:56:56.401Z,29.08
2022-12-01T08:59:26.098Z,30.67
2022-12-01T09:01:57.538Z,31.90
2022-12-01T09:04:30.174Z,27.95
2022-12-01T09:07:02.759Z,28.60
2022-12-01T09:09:32.536Z,28.35
2022-12-01T09:12:03.241Z,32.25
2022-12-01T09:14:32.981Z,36.78
2022-12-01T09:17:02.713Z,37.00
2022-12-01T09:19:32.639Z,31.75
2022-12-01T09:22:06.370Z,40.42
2022-12-01T09:24:36.184Z,36.15
2022-12-01T09:27:07.109Z,34.50
2022-12-01T09:29:36.877Z,34.13
2022-12-01T09:32:06.699Z,39.08
2022-12-01T09:34:36.403Z,35.42
2022-12-01T09:37:08.707Z,31.75
2022-12-01T09:39:38.391Z,29.52
2022-12-01T09:42:14.149Z,37.95
2022-12-01T09:47:21.216Z,29.52
2022-12-01T09:52:29.252Z,32.63
2022-12-01T09:55:01.979Z,29.50
2022-12-01T09:57:35.368Z,34.55
2022-12-01T10:00:09.177Z,32.65
2022-12-01T10:02:51.544Z,30.98
2022-12-01T10:05:23.867Z,33.83
2022-12-01T10:08:01.466Z,31.60
2022-12-01T10:10:36.020Z,29.58
2022-12-01T10:13:06.069Z,33.03
2022-12-01T10:15:44.033Z,31.00
2022-12-01T10:18:25.105Z,32.22
2022-12-01T10:21:05.028Z,32.60
2022-12-01T10:23:50.186Z,32.42
2022-12-01T10:26:28.452Z,32.72
2022-12-01T10:29:14.011Z,42.45
2022-12-01T10:31:56.117Z,43.05
2022-12-01T10:34:28.150Z,34.50
2022-12-01T10:36:58.722Z,31.60
2022-12-01T10:39:36.212Z,32.83
2022-12-01T10:42:10.707Z,30.05
2022-12-01T10:44:40.825Z,28.42
2022-12-01T10:47:20.621Z,29.38
2022-12-01T10:49:51.005Z,29.02
2022-12-01T10:52:37.464Z,26.67
2022-12-01T10:55:29.145Z,27.15
2022-12-01T10:58:07.777Z,26.90
2022-12-01T11:00:59.224Z,28.75
2022-12-01T11:03:33.698Z,25.88
2022-12-01T11:06:05.776Z,25.13
2022-12-01T11:08:42.064Z,24.85
2022-12-01T11:11:28.076Z,23.27
2022-12-01T11:13:59.641Z,25.60
2022-12-01T11:16:44.490Z,25.83
2022-12-01T11:19:30.925Z,25.27
2022-12-01T11:22:05.418Z,23.83
2022-12-01T11:24:45.352Z,25.63
2022-12-01T11:27:23.561Z,26.27
2022-12-01T11:29:56.549Z,25.30
2022-12-01T11:35:02.228Z,24.38
2022-12-01T11:37:36.344Z,25.20
2022-12-01T11:40:18.973Z,26.23
2022-12-01T11:42:55.097Z,27.27
2022-12-01T11:45:32.520Z,26.63
2022-12-01T11:48:08.981Z,31.98
2022-12-01T11:50:41.773Z,35.08
2022-12-01T11:53:30.185Z,29.77
2022-12-01T11:56:20.896Z,28.90
2022-12-01T11:58:57.466Z,27.90
2022-12-01T12:01:39.288Z,27.25
2022-12-01T12:04:23.662Z,32.85
2022-12-01T12:07:04.330Z,27.33
2022-12-01T12:09:51.085Z,28.63
2022-12-01T12:12:38.086Z,28.33
2022-12-01T12:15:21.586Z,27.88
2022-12-01T12:18:05.553Z,27.85
2022-12-01T12:20:45.745Z,27.80
2022-12-01T12:23:51.067Z,27.05
2022-12-01T12:26:28.116Z,25.48
2022-12-01T12:29:18.153Z,27.08
2022-12-01T12:32:06.246Z,25.80
2022-12-01T12:34:49.442Z,28.00
2022-12-01T12:37:24.988Z,25.63
2022-12-01T12:40:29.699Z,25.02
2022-12-01T12:43:20.810Z,26.60
2022-12-01T12:46:00.355Z,26.40
2022-12-01T12:49:18.111Z,27.55
2022-12-01T12:51:40.871Z,24.02
2022-12-01T12:54:21.496Z,24.50
2022-12-01T12:56:57.007Z,20.95
2022-12-01T12:59:32.848Z,21.92
2022-12-01T13:04:45.559Z,20.70
2022-12-01T13:07:28.323Z,21.83
2022-12-01T13:10:03.304Z,22.10
2022-12-01T13:12:38.019Z,23.17
2022-12-01T13:15:18.005Z,23.65
2022-12-01T13:17:51.360Z,24.67
2022-12-01T13:20:27.780Z,20.85
2022-12-01T13:23:00.727Z,21.30
2022-12-01T13:25:35.857Z,22.08
2022-12-01T13:28:07.583Z,22.75
2022-12-01T13:30:37.377Z,21.58
2022-12-01T13:33:08.930Z,24.52
2022-12-01T13:35:42.360Z,32.53
2022-12-01T13:38:34.030Z,25.70
2022-12-01T13:41:15.249Z,23.40
2022-12-01T13:43:56.452Z,21.10
2022-12-01T13:46:28.867Z,20.13
2022-12-01T13:49:00.511Z,20.85
2022-12-01T13:52:10.542Z,21.90
2022-12-01T13:54:40.399Z,21.05
2022-12-01T13:57:15.522Z,22.27
2022-12-01T14:00:23.800Z,17.50
2022-12-01T14:03:23.808Z,20.40
2022-12-01T14:05:59.051Z,19.10
2022-12-01T14:08:33.556Z,19.67
2022-12-01T14:11:06.141Z,21.17
2022-12-01T14:13:48.082Z,22.27
2022-12-01T14:16:18.251Z,23.23
2022-12-01T14:18:54.567Z,23.08
2022-12-01T14:21:46.860Z,22.30
2022-12-01T14:24:28.585Z,21.65
2022-12-01T14:26:58.655Z,21.23
2022-12-01T14:29:34.517Z,24.33
2022-12-01T14:32:26.718Z,23.70
2022-12-01T14:35:04.181Z,20.70
2022-12-01T14:37:45.343Z,20.08
2022-12-01T14:40:24.829Z,20.48
2022-12-01T14:43:10.806Z,19.98
2022-12-01T14:45:45.613Z,19.92
2022-12-01T14:48:19.477Z,21.03
2022-12-01T14:50:52.134Z,18.48
2022-12-01T14:53:26.618Z,18.73
2022-12-01T14:56:02.225Z,20.08
2022-12-01T14:58:33.839Z,21.35
2022-12-01T15:01:08.869Z,20.67
2022-12-01T15:03:42.841Z,16.48
2022-12-01T15:06:18.806Z,20.40
2022-12-01T15:09:10.517Z,21.48
2022-12-01T15:11:52.867Z,21.13
2022-12-01T15:14:31.374Z,21.98
2022-12-01T15:17:02.730Z,21.95
2022-12-01T15:19:38.637Z,22.92
2022-12-01T15:22:14.708Z,22.48
2022-12-01T15:24:45.434Z,22.33
2022-12-01T15:27:32.879Z,23.13
2022-12-01T15:30:04.910Z,24.63
2022-12-01T15:32:43.167Z,26.52
2022-12-01T15:35:20.790Z,28.80
2022-12-01T15:37:51.734Z,25.17
2022-12-01T15:41:06.212Z,26.20
2022-12-01T15:43:22.848Z,24.58
2022-12-01T15:45:58.161Z,25.85
2022-12-01T15:48:31.483Z,24.35
2022-12-01T15:51:10.551Z,24.33
2022-12-01T15:53:43.114Z,22.23
2022-12-01T15:56:14.461Z,22.88
2022-12-01T15:58:49.112Z,22.33
2022-12-01T16:01:21.554Z,21.38
2022-12-01T16:03:56.814Z,21.77
2022-12-01T16:06:29.474Z,20.70
2022-12-01T16:09:03.380Z,20.50
2022-12-01T16:11:33.762Z,18.88
2022-12-01T16:14:09.737Z,19.63
2022-12-01T16:16:42.113Z,21.23
2022-12-01T16:19:28.531Z,22.30
2022-12-01T16:22:02.047Z,23.08
2022-12-01T16:24:35.687Z,23.30
2022-12-01T16:27:07.170Z,23.50
2022-12-01T16:29:55.111Z,27.75
2022-12-01T16:32:28.066Z,25.17
2022-12-01T16:34:58.072Z,23.95
2022-12-01T16:37:29.303Z,22.55
2022-12-01T16:39:59.581Z,23.55
2022-12-01T16:42:30.418Z,24.63
2022-12-01T16:45:02.702Z,23.08
2022-12-01T16:47:34.796Z,20.85
2022-12-01T16:50:04.600Z,21.80
2022-12-01T16:52:49.805Z,20.90
2022-12-01T16:55:29.749Z,20.53
2022-12-01T16:57:59.523Z,21.85
2022-12-01T17:00:32.034Z,21.20
2022-12-01T17:03:01.798Z,20.98
2022-12-01T17:05:31.656Z,22.15
2022-12-01T17:08:01.553Z,20.10
2022-12-01T17:10:31.631Z,21.52
2022-12-01T17:13:01.311Z,21.00
2022-12-01T17:15:33.636Z,22.38
2022-12-01T17:18:03.663Z,21.67
2022-12-01T17:20:33.338Z,23.23
2022-12-01T17:23:03.187Z,20.85
2022-12-01T17:25:32.958Z,23.38
2022-12-01T17:28:02.749Z,22.98
2022-12-01T17:30:35.080Z,20.92
2022-12-01T17:33:05.052Z,21.88
2022-12-01T17:35:35.162Z,22.02
2022-12-01T17:38:04.865Z,21.02
2022-12-01T17:40:35.241Z,21.73
2022-12-01T17:43:04.991Z,22.98
2022-12-01T17:45:42.218Z,22.08
2022-12-01T17:48:12.017Z,21.83
2022-12-01T17:50:41.812Z,22.48
2022-12-01T17:53:11.654Z,21.42
2022-12-01T17:55:42.306Z,20.25
2022-12-01T17:58:12.229Z,21.95
2022-12-01T18:00:44.756Z,21.25
2022-12-01T18:03:14.586Z,20.27
2022-12-01T18:05:44.480Z,21.52
2022-12-01T18:08:14.445Z,20.77
2022-12-01T18:10:46.570Z,19.23
2022-12-01T18:13:16.339Z,21.38
2022-12-01T18:15:48.782Z,21.15
2022-12-01T18:18:18.641Z,19.83
2022-12-01T18:20:48.544Z,19.95
2022-12-01T18:23:18.343Z,18.85
2022-12-01T18:25:48.163Z,20.90
2022-12-01T18:28:17.895Z,19.90
2022-12-01T18:30:50.228Z,19.42
2022-12-01T18:33:21.763Z,18.30
2022-12-01T18:35:52.478Z,20.50
2022-12-01T18:38:23.330Z,20.42
2022-12-01T18:40:53.143Z,20.45
2022-12-01T18:43:22.861Z,21.92
2022-12-01T18:45:55.266Z,20.80
2022-12-01T18:48:25.353Z,23.05
2022-12-01T18:50:59.481Z,20.52
2022-12-01T18:53:30.009Z,21.70
2022-12-01T18:55:59.826Z,20.40
2022-12-01T18:58:29.561Z,20.83
2022-12-01T19:01:03.289Z,22.25
2022-12-01T19:03:34.036Z,21.08
2022-12-01T19:06:09.907Z,21.73
2022-12-01T19:08:39.613Z,21.20
2022-12-01T19:11:11.649Z,23.33
2022-12-01T19:13:41.722Z,20.90
2022-12-01T19:16:18.499Z,23.70
2022-12-01T19:18:49.205Z,20.88
2022-12-01T19:21:21.475Z,22.67
2022-12-01T19:23:52.667Z,21.58
2022-12-01T19:26:25.631Z,21.77
2022-12-01T19:28:55.576Z,20.10
2022-12-01T19:31:28.166Z,21.90
2022-12-01T19:33:58.126Z,22.35
2022-12-01T19:36:30.201Z,21.75
2022-12-01T19:39:04.015Z,21.45
2022-12-01T19:41:37.009Z,21.65
2022-12-01T19:44:09.410Z,20.95
2022-12-01T19:46:41.749Z,20.92
2022-12-01T19:49:13.534Z,22.35
2022-12-01T19:51:44.009Z,21.42
2022-12-01T19:54:16.686Z,21.83
2022-12-01T19:56:46.872Z,21.60
2022-12-01T19:59:16.653Z,21.98
2022-12-01T20:01:49.610Z,21.25
2022-12-01T20:04:19.369Z,21.35
2022-12-01T20:06:49.626Z,22.20
2022-12-01T20:09:19.329Z,23.60
2022-12-01T20:11:49.179Z,22.80
2022-12-01T20:14:18.894Z,23.83
2022-12-01T20:16:51.573Z,22.48
2022-12-01T20:19:21.394Z,23.67
2022-12-01T20:21:51.601Z,23.83
2022-12-01T20:24:22.850Z,23.83
2022-12-01T20:26:56.661Z,23.27
2022-12-01T20:29:29.312Z,22.55
2022-12-01T20:32:04.334Z,23.73
2022-12-01T20:34:36.531Z,24.20
2022-12-01T20:37:06.733Z,23.77
2022-12-01T20:39:38.226Z,23.92
2022-12-01T20:42:08.354Z,24.80
2022-12-01T20:44:40.069Z,22.33
2022-12-01T20:47:12.395Z,24.63
2022-12-01T20:49:42.102Z,22.77
2022-12-01T20:52:11.846Z,23.27
2022-12-01T20:54:41.860Z,23.02
2022-12-01T20:57:11.556Z,24.02
2022-12-01T20:59:41.237Z,23.42
2022-12-01T21:02:14.831Z,24.77
2022-12-01T21:04:44.590Z,24.25
2022-12-01T21:07:14.367Z,25.35
2022-12-01T21:09:44.106Z,25.17
2022-12-01T21:12:29.638Z,25.48
2022-12-01T21:15:05.912Z,25.30
2022-12-01T21:17:42.803Z,25.95
2022-12-01T21:20:22.063Z,26.05
2022-12-01T21:22:53.778Z,26.27
2022-12-01T21:25:25.670Z,25.73
2022-12-01T21:27:59.105Z,24.92
2022-12-01T21:30:29.995Z,25.35
2022-12-01T21:33:19.709Z,25.65
2022-12-01T21:35:54.073Z,26.25
2022-12-01T21:38:26.304Z,25.77
2022-12-01T21:40:56.457Z,27.38
2022-12-01T21:43:28.247Z,27.30
2022-12-01T21:46:01.056Z,27.52
2022-12-01T21:48:38.191Z,27.60
2022-12-01T21:51:23.112Z,27.45
2022-12-01T21:53:54.222Z,27.58
2022-12-01T21:56:27.100Z,25.90
2022-12-01T21:59:01.698Z,27.23
2022-12-01T22:01:33.168Z,25.20
2022-12-01T22:04:14.389Z,26.70
2022-12-01T22:06:47.282Z,27.65
2022-12-01T22:09:24.565Z,28.48
2022-12-01T22:11:56.520Z,27.27
2022-12-01T22:14:30.526Z,26.60
2022-12-01T22:17:03.930Z,26.45
2022-12-01T22:19:38.221Z,28.48
2022-12-01T22:22:25.077Z,26.70
2022-12-01T22:24:55.947Z,26.75
2022-12-01T22:27:31.914Z,27.10
2022-12-01T22:30:04.271Z,27.15
2022-12-01T22:32:43.325Z,28.70
2022-12-01T22:35:29.505Z,26.77
2022-12-01T22:38:12.067Z,28.83
2022-12-01T22:40:43.314Z,28.65
2022-12-01T22:43:27.325Z,30.10
2022-12-01T22:46:20.212Z,30.13
2022-12-01T22:48:52.921Z,30.10
2022-12-01T22:51:39.834Z,28.08
2022-12-01T22:54:27.387Z,29.77
2022-12-01T22:57:05.445Z,29.33
2022-12-01T22:59:37.513Z,29.40
2022-12-01T23:02:20.542Z,29.30
2022-12-01T23:04:52.529Z,29.25
2022-12-01T23:07:44.145Z,30.35
2022-12-01T23:10:18.333Z,29.95
2022-12-01T23:12:49.472Z,30.00
2022-12-01T23:15:35.366Z,29.90
2022-12-01T23:18:14.399Z,28.35
2022-12-01T23:20:46.330Z,27.52
2022-12-01T23:23:20.481Z,30.40
2022-12-01T23:25:52.554Z,27.70
2022-12-01T23:28:23.054Z,28.08
2022-12-01T23:30:56.799Z,28.65
2022-12-01T23:33:28.615Z,29.63
2022-12-01T23:36:02.135Z,28.88
2022-12-01T23:38:40.026Z,29.67
2022-12-01T23:41:13.290Z,28.85
2022-12-01T23:43:45.508Z,28.02
2022-12-01T23:46:19.249Z,27.52
2022-12-01T23:48:51.990Z,30.30
2022-12-01T23:51:28.056Z,27.45
2022-12-01T23:54:02.973Z,28.27
2022-12-01T23:56:34.309Z,26.85
2022-12-01T23:59:04.143Z,28.65
